Beaufort MCAS - Merritt Field
KNBC : rendu visible

Aérodrome :











RETROUVEZ-NOUS SUR...

 
LOGIN :

S'inscrire | Disclaimer

   EN    FR    IT 

 









Légende :    VFR   VFR Marginal   IFR   IFR Intensif   IFR Très Intensif
Visi : 
Plafond : 
>= 8 km
>= 3000ft
5 à 8 km
1000 à 3000 ft
1500m à 5 km
500 à 1000 ft
800 à 1500m
200 à 500 ft
< 800m
< 200 ft
Symboles :   Orages  Brouillard  Fortes neiges  Fortes précipitations  Vent > 20 kt






- Altitude de l'aérodrome : 37 ft


KNBC - Beaufort MCAS - Merritt Field

DERNIER METAR :
  • 260856Z AUTO 27005KT 10SM CLR 06/02 A3006 RMK AO2 SLP181 T00610022 56006

METARs EXPIRÉS :
  • 260756Z AUTO 29006KT 10SM CLR 07/03 A3007 RMK AO2 SLP183 T00670028
  • 260656Z AUTO 28008KT 10SM CLR 07/03 A3007 RMK AO2 SLP183 T00720028

TAF TAF KNBC
Valide du 26 à 09h jusqu'au 27 à 09h UTC


2609/2709 VRB06KT 9999 SKC QNH3000INS
BECMG 2612/2614 35010KT 9999 FEW030 SCT150 QNH3005INS T14/2621Z T06/2709Z



MET'MAP, la Météo Aéronautique d'un coup d'oeil ! - Copyright ORBIFLY Décembre 2007 - Disclaimer

ORBIFLY MET'MAP TEAM :

Programmation & Développement : Alexandra Zaïnal
Sur une idée originale de : Baudouin d'Aumeries
Assistance à la programmation : Marc-Olivier Méhu
Soutien technique & logistique : Manuel Goepfert

Contact : metmap@orbifly.com




SOURCES & CREDITS :

   NOAA       Earth
Advisory